Time;durP1;ratioP1;P1;durP2;ratioP2;P2;SDS_P1;SDS_P2;PMS_P1;PMS_P2;Temp;Humidity;BMP_temperature;BMP_pressure;BME280_temperature;BME280_humidity;BME280_pressure;Samples;Min_cycle;Max_cycle;Signal;HPM_P1;HPM_P2
2023/09/09 00:02:29;;;;;;;12.52;11.30;;;21.20;93.90;;;;;;4965089;28;20034;-58
2023/09/09 00:05:15;;;;;;;13.63;12.20;;;21.10;94.10;;;;;;4965325;28;20027;-58
2023/09/09 00:08:01;;;;;;;15.63;12.50;;;21.20;94.40;;;;;;4966713;28;20030;-55
2023/09/09 00:10:47;;;;;;;13.32;11.85;;;21.10;94.70;;;;;;4959052;28;20062;-57
2023/09/09 00:13:33;;;;;;;14.57;12.02;;;21.10;94.90;;;;;;4966455;28;20031;-56
2023/09/09 00:16:19;;;;;;;14.82;11.13;;;21.00;95.10;;;;;;4957685;28;20035;-57
2023/09/09 00:19:05;;;;;;;14.90;11.70;;;21.00;95.20;;;;;;4967525;28;20023;-58
2023/09/09 00:21:51;;;;;;;14.00;11.20;;;21.00;95.50;;;;;;4969141;28;20034;-58
2023/09/09 00:24:37;;;;;;;14.02;11.43;;;21.10;95.50;;;;;;4967345;28;20046;-58
2023/09/09 00:27:23;;;;;;;14.60;11.73;;;21.10;95.40;;;;;;4966049;28;20031;-56
2023/09/09 00:30:09;;;;;;;13.35;11.40;;;21.10;95.50;;;;;;4965436;28;20034;-58
2023/09/09 00:32:57;;;;;;;12.60;11.18;;;21.20;95.40;;;;;;4960937;28;20035;-58
2023/09/09 00:35:43;;;;;;;15.05;12.32;;;21.20;95.20;;;;;;4962164;28;20136;-58
2023/09/09 00:38:29;;;;;;;12.63;11.38;;;21.20;95.10;;;;;;4963729;28;20097;-54
2023/09/09 00:41:18;;;;;;;13.77;11.57;;;21.10;95.40;;;;;;4956548;28;20424;-55
2023/09/09 00:44:04;;;;;;;13.52;12.00;;;21.10;95.50;;;;;;4966935;28;20033;-58
2023/09/09 00:46:51;;;;;;;13.50;11.43;;;21.10;95.70;;;;;;4984552;28;20503;-56
2023/09/09 00:49:38;;;;;;;13.20;11.85;;;21.00;95.90;;;;;;4969910;28;20027;-56
2023/09/09 00:52:24;;;;;;;12.40;10.90;;;20.90;96.20;;;;;;4980720;28;20113;-57
2023/09/09 00:55:11;;;;;;;12.88;11.50;;;20.90;96.40;;;;;;4991097;28;20027;-56
2023/09/09 00:57:57;;;;;;;14.57;12.02;;;20.90;96.50;;;;;;4990740;28;20054;-56
2023/09/09 01:00:43;;;;;;;13.43;12.07;;;20.80;96.30;;;;;;4987154;28;20425;-53
2023/09/09 01:03:30;;;;;;;12.30;11.00;;;20.80;96.60;;;;;;4988653;28;20034;-57
2023/09/09 01:06:17;;;;;;;13.90;10.90;;;20.60;96.70;;;;;;4990451;28;20054;-57
2023/09/09 01:09:06;;;;;;;13.57;11.30;;;20.60;96.90;;;;;;4966745;28;20035;-57
2023/09/09 01:11:53;;;;;;;12.73;11.30;;;20.60;97.20;;;;;;4983588;28;20034;-54
2023/09/09 01:14:41;;;;;;;13.75;11.65;;;20.60;97.20;;;;;;4987212;28;20031;-57
2023/09/09 01:17:27;;;;;;;13.43;12.07;;;20.60;97.30;;;;;;4979667;28;20080;-56
2023/09/09 01:20:14;;;;;;;12.25;11.05;;;20.50;97.30;;;;;;4990428;28;20105;-58
2023/09/09 01:23:00;;;;;;;11.18;10.07;;;20.50;97.30;;;;;;4978100;28;20057;-54
2023/09/09 01:25:46;;;;;;;12.23;10.63;;;20.50;97.50;;;;;;4990100;28;20041;-58
2023/09/09 01:28:32;;;;;;;11.73;10.52;;;20.40;97.60;;;;;;4990023;28;20022;-55
2023/09/09 01:31:18;;;;;;;14.35;10.65;;;20.40;97.60;;;;;;4985884;28;20447;-57
2023/09/09 01:34:04;;;;;;;12.55;11.23;;;20.30;97.60;;;;;;4989046;28;20578;-58
2023/09/09 01:36:50;;;;;;;13.85;11.05;;;20.30;97.50;;;;;;4985261;28;20154;-57
2023/09/09 01:39:35;;;;;;;15.18;11.68;;;20.20;97.60;;;;;;4979372;28;20412;-57
2023/09/09 01:42:22;;;;;;;16.25;12.00;;;20.00;97.90;;;;;;4970160;28;20499;-58
2023/09/09 01:45:08;;;;;;;14.65;11.88;;;19.90;98.30;;;;;;4977878;28;20660;-57
2023/09/09 01:47:54;;;;;;;16.23;12.50;;;19.80;98.60;;;;;;4982996;28;20373;-56
2023/09/09 01:50:40;;;;;;;16.05;11.38;;;19.70;98.70;;;;;;4986036;28;20828;-55
2023/09/09 01:53:25;;;;;;;14.85;13.35;;;19.50;99.10;;;;;;4967481;28;20038;-55
2023/09/09 01:56:12;;;;;;;14.65;12.85;;;19.20;99.70;;;;;;4985514;28;20400;-57
2023/09/09 01:58:58;;;;;;;13.80;12.38;;;19.10;99.90;;;;;;4983070;28;20069;-58
2023/09/09 02:01:44;;;;;;;16.48;12.68;;;19.10;99.60;;;;;;4989247;28;20439;-55
2023/09/09 02:04:30;;;;;;;15.07;12.30;;;19.00;99.90;;;;;;4989171;28;20036;-58
2023/09/09 02:07:15;;;;;;;13.73;12.30;;;19.00;99.90;;;;;;4988802;28;20034;-56
2023/09/09 02:10:01;;;;;;;13.73;12.15;;;19.00;99.90;;;;;;4989444;28;20539;-57
2023/09/09 02:12:47;;;;;;;13.48;12.18;;;19.10;99.90;;;;;;4974517;28;20042;-57
2023/09/09 02:15:33;;;;;;;13.77;12.35;;;19.20;99.90;;;;;;4988103;28;20081;-57
2023/09/09 02:18:19;;;;;;;15.77;11.68;;;19.20;99.90;;;;;;4989813;28;20045;-56
2023/09/09 02:21:06;;;;;;;14.93;12.50;;;19.10;99.90;;;;;;4989096;28;20057;-57
2023/09/09 02:23:52;;;;;;;13.50;11.93;;;19.20;99.80;;;;;;4989164;28;20030;-55
2023/09/09 02:26:38;;;;;;;19.42;12.57;;;19.10;99.80;;;;;;4987421;28;20035;-58
2023/09/09 02:29:24;;;;;;;14.35;12.85;;;19.10;99.80;;;;;;4989230;28;20485;-58
2023/09/09 02:32:10;;;;;;;20.40;13.07;;;19.10;99.90;;;;;;4989179;28;20037;-58
2023/09/09 02:34:57;;;;;;;13.73;12.32;;;19.10;99.80;;;;;;4988108;28;20034;-56
2023/09/09 02:37:43;;;;;;;13.48;11.90;;;18.90;99.90;;;;;;4986664;28;20051;-56
2023/09/09 02:40:29;;;;;;;14.98;12.80;;;18.80;99.90;;;;;;4987057;28;20084;-57
2023/09/09 02:43:15;;;;;;;14.23;12.82;;;18.80;99.90;;;;;;4989152;28;20041;-57
2023/09/09 02:46:01;;;;;;;16.42;13.77;;;18.80;99.90;;;;;;4989188;28;20110;-57
2023/09/09 02:48:47;;;;;;;14.23;12.82;;;18.80;99.90;;;;;;4989037;28;20097;-53
2023/09/09 02:51:33;;;;;;;17.73;14.10;;;18.80;99.90;;;;;;4987020;28;20039;-54
2023/09/09 02:54:19;;;;;;;19.05;14.45;;;18.80;99.90;;;;;;4977118;28;20031;-56
2023/09/09 02:57:05;;;;;;;17.05;13.68;;;18.70;99.90;;;;;;4973976;28;20022;-58
2023/09/09 02:59:51;;;;;;;16.60;14.13;;;18.70;99.90;;;;;;4977487;28;20114;-57
2023/09/09 03:02:37;;;;;;;14.43;13.02;;;18.70;99.90;;;;;;4988903;28;20037;-55
2023/09/09 03:05:23;;;;;;;17.63;13.80;;;18.70;99.90;;;;;;4985794;28;20030;-54
2023/09/09 03:08:09;;;;;;;15.82;13.43;;;18.60;99.90;;;;;;4986880;28;20054;-56
2023/09/09 03:10:55;;;;;;;14.75;13.25;;;18.60;99.90;;;;;;4988565;28;20036;-57
2023/09/09 03:13:42;;;;;;;13.38;11.68;;;18.60;99.90;;;;;;4987551;28;21254;-57
2023/09/09 03:16:28;;;;;;;15.18;13.65;;;18.50;99.90;;;;;;4989266;28;20034;-56
2023/09/09 03:19:14;;;;;;;14.48;12.90;;;18.50;99.90;;;;;;4989844;28;20026;-56
2023/09/09 03:22:00;;;;;;;16.85;13.80;;;18.40;99.90;;;;;;4992496;28;20117;-58
2023/09/09 03:24:46;;;;;;;14.40;12.80;;;18.40;99.90;;;;;;4984022;28;20034;-53
2023/09/09 03:27:32;;;;;;;15.27;13.75;;;18.40;99.90;;;;;;4985705;28;20027;-57
2023/09/09 03:30:18;;;;;;;15.02;12.85;;;18.40;99.90;;;;;;4991877;28;20041;-54
2023/09/09 03:33:04;;;;;;;14.10;12.57;;;18.30;99.90;;;;;;4988700;28;20092;-57
2023/09/09 03:35:50;;;;;;;13.90;12.50;;;18.30;99.90;;;;;;4992243;28;20084;-54
2023/09/09 03:38:36;;;;;;;14.85;13.00;;;18.30;99.90;;;;;;4987152;28;20034;-55
2023/09/09 03:41:22;;;;;;;18.98;13.32;;;18.30;99.90;;;;;;4991806;28;20092;-57
2023/09/09 03:44:08;;;;;;;12.77;11.50;;;18.40;99.90;;;;;;4992089;28;20035;-57
2023/09/09 03:46:54;;;;;;;15.05;12.15;;;18.30;99.90;;;;;;4990803;28;20076;-55
2023/09/09 03:49:40;;;;;;;14.30;12.80;;;18.30;99.90;;;;;;4991644;28;20105;-57
2023/09/09 03:52:28;;;;;;;15.70;12.27;;;18.30;99.90;;;;;;4974960;28;20121;-57
2023/09/09 03:55:14;;;;;;;17.40;13.02;;;18.30;99.90;;;;;;4977943;28;20713;-56
2023/09/09 03:58:00;;;;;;;14.75;12.93;;;18.20;99.90;;;;;;4987514;28;20034;-56
2023/09/09 04:00:46;;;;;;;17.00;12.52;;;18.20;99.90;;;;;;4980167;28;20038;-58
2023/09/09 04:03:34;;;;;;;13.68;12.25;;;18.20;99.90;;;;;;4993246;28;20046;-58
2023/09/09 04:06:20;;;;;;;13.02;11.73;;;18.30;99.90;;;;;;4988687;28;20026;-56
2023/09/09 04:09:06;;;;;;;12.57;11.30;;;18.30;99.90;;;;;;4987464;28;20037;-53
2023/09/09 04:11:53;;;;;;;15.05;10.93;;;18.30;99.90;;;;;;4991406;28;20427;-55
2023/09/09 04:14:39;;;;;;;17.00;12.70;;;18.20;99.90;;;;;;4991142;28;20114;-57
2023/09/09 04:17:25;;;;;;;14.68;11.65;;;18.20;99.90;;;;;;4986894;28;20051;-57
2023/09/09 04:20:11;;;;;;;12.45;11.25;;;18.20;99.90;;;;;;4983460;28;20034;-54
2023/09/09 04:22:57;;;;;;;13.48;11.07;;;18.10;99.90;;;;;;4977262;28;20105;-55
2023/09/09 04:25:44;;;;;;;13.98;11.48;;;18.10;99.90;;;;;;4991444;28;20435;-55
2023/09/09 04:28:30;;;;;;;13.43;10.75;;;18.00;99.90;;;;;;4987446;28;20644;-55
2023/09/09 04:31:16;;;;;;;13.70;11.25;;;18.00;99.90;;;;;;4989835;28;20036;-55
2023/09/09 04:34:02;;;;;;;12.68;11.32;;;17.80;99.90;;;;;;4990792;28;20022;-58
2023/09/09 04:36:47;;;;;;;13.18;11.60;;;17.90;99.90;;;;;;4980217;28;20050;-54
2023/09/09 04:39:33;;;;;;;14.05;10.90;;;17.90;99.90;;;;;;4987905;28;20032;-56
2023/09/09 04:42:21;;;;;;;12.93;11.15;;;17.90;99.90;;;;;;4991172;28;20097;-56
2023/09/09 04:45:07;;;;;;;12.63;11.40;;;17.90;99.90;;;;;;4991327;28;20022;-58
2023/09/09 04:47:53;;;;;;;11.65;10.50;;;17.80;99.90;;;;;;4988044;28;20093;-57
2023/09/09 04:50:39;;;;;;;12.50;11.23;;;17.80;99.90;;;;;;4990419;28;20030;-56
2023/09/09 04:53:27;;;;;;;13.05;11.75;;;17.80;99.90;;;;;;4990620;28;20109;-57
2023/09/09 04:56:13;;;;;;;13.63;11.55;;;17.80;99.90;;;;;;4990703;28;20067;-58
2023/09/09 04:58:59;;;;;;;13.55;11.85;;;17.80;99.90;;;;;;4987176;28;20023;-57
2023/09/09 05:01:45;;;;;;;14.35;11.68;;;17.80;99.90;;;;;;4989752;28;20018;-57
2023/09/09 05:04:31;;;;;;;13.07;11.73;;;17.80;99.90;;;;;;4990019;28;20026;-58
2023/09/09 05:07:17;;;;;;;12.60;10.75;;;17.80;99.90;;;;;;4987962;28;20499;-55
2023/09/09 05:10:04;;;;;;;14.68;12.55;;;17.80;99.90;;;;;;4984575;28;20038;-56
2023/09/09 05:12:50;;;;;;;14.40;12.90;;;17.80;99.90;;;;;;4990029;28;20022;-55
2023/09/09 05:15:36;;;;;;;13.60;12.20;;;17.80;99.90;;;;;;4989959;28;20050;-56
2023/09/09 05:18:22;;;;;;;15.07;12.57;;;17.70;99.90;;;;;;4987555;28;20439;-54
2023/09/09 05:21:08;;;;;;;19.80;12.65;;;17.60;99.90;;;;;;4979844;28;20026;-56
2023/09/09 05:23:54;;;;;;;12.57;11.35;;;17.50;99.90;;;;;;4990012;28;20571;-56
2023/09/09 05:26:40;;;;;;;14.05;12.40;;;17.50;99.90;;;;;;4978121;28;20035;-58
2023/09/09 05:29:26;;;;;;;15.23;13.63;;;17.50;99.90;;;;;;4987584;28;20500;-57
2023/09/09 05:32:12;;;;;;;16.95;14.40;;;17.50;99.90;;;;;;4990179;28;20031;-58
2023/09/09 05:34:58;;;;;;;18.80;16.80;;;17.30;99.90;;;;;;4990328;28;20023;-54
2023/09/09 05:37:46;;;;;;;15.68;13.95;;;17.30;99.90;;;;;;4989509;28;20054;-52
2023/09/09 05:40:32;;;;;;;15.50;13.88;;;17.30;99.90;;;;;;4989792;28;20401;-54
2023/09/09 05:43:18;;;;;;;16.13;13.40;;;17.30;99.90;;;;;;4989377;28;20492;-58
2023/09/09 05:46:04;;;;;;;16.77;13.20;;;17.30;99.90;;;;;;4990039;28;20495;-58
2023/09/09 05:48:50;;;;;;;15.02;13.52;;;17.40;99.90;;;;;;4987795;28;20030;-58
2023/09/09 05:51:36;;;;;;;15.35;13.38;;;17.40;99.90;;;;;;4988616;28;20035;-54
2023/09/09 05:54:21;;;;;;;17.02;14.57;;;17.50;99.90;;;;;;4990067;28;20026;-54
2023/09/09 05:57:08;;;;;;;16.45;13.38;;;17.50;99.90;;;;;;4982286;28;20054;-53
2023/09/09 05:59:54;;;;;;;16.90;13.13;;;17.50;99.90;;;;;;4976489;28;20034;-58
2023/09/09 06:02:40;;;;;;;13.90;12.50;;;17.50;99.90;;;;;;4989294;28;20019;-55
2023/09/09 06:05:26;;;;;;;17.23;13.82;;;17.60;99.90;;;;;;4984553;28;20570;-55
2023/09/09 06:08:12;;;;;;;14.15;12.75;;;17.70;99.90;;;;;;4988005;28;20440;-54
2023/09/09 06:10:58;;;;;;;16.00;14.30;;;17.80;99.90;;;;;;4989284;28;20085;-54
2023/09/09 06:13:44;;;;;;;17.80;14.13;;;18.00;99.90;;;;;;4977192;28;20033;-54
2023/09/09 06:16:30;;;;;;;16.88;14.32;;;18.10;99.90;;;;;;4977551;28;20058;-53
2023/09/09 06:19:17;;;;;;;15.50;13.85;;;18.10;99.90;;;;;;4988433;28;20026;-52
2023/09/09 06:22:03;;;;;;;16.70;14.35;;;18.30;99.90;;;;;;4989276;28;20113;-57
2023/09/09 06:24:49;;;;;;;17.45;14.07;;;18.50;99.90;;;;;;4989011;28;20065;-57
2023/09/09 06:27:35;;;;;;;18.80;14.95;;;18.60;99.90;;;;;;4986647;28;20022;-53
2023/09/09 06:30:20;;;;;;;15.95;14.27;;;18.80;99.90;;;;;;4977437;28;20027;-55
2023/09/09 06:33:06;;;;;;;13.88;11.85;;;18.90;99.90;;;;;;4978627;28;20412;-57
2023/09/09 06:35:53;;;;;;;15.98;14.10;;;19.00;99.90;;;;;;4975366;28;20520;-57
2023/09/09 06:38:38;;;;;;;15.75;13.57;;;19.10;99.90;;;;;;4981106;28;20069;-58
2023/09/09 06:41:24;;;;;;;15.55;13.95;;;19.20;99.90;;;;;;4989150;28;20105;-55
2023/09/09 06:44:10;;;;;;;15.13;13.43;;;19.40;99.90;;;;;;4974443;28;20035;-53
2023/09/09 06:46:56;;;;;;;13.82;12.43;;;19.50;99.90;;;;;;4973319;28;20030;-50
2023/09/09 06:49:42;;;;;;;14.15;12.50;;;19.60;99.90;;;;;;4978279;28;20440;-53
2023/09/09 06:52:28;;;;;;;17.38;12.05;;;19.70;99.90;;;;;;4965021;28;20451;-54
2023/09/09 06:55:14;;;;;;;15.40;13.20;;;19.80;99.90;;;;;;4981617;28;20512;-52
2023/09/09 06:58:01;;;;;;;15.25;13.20;;;20.00;99.90;;;;;;4987608;28;20023;-52
2023/09/09 07:00:51;;;;;;;14.60;13.20;;;20.00;99.90;;;;;;4992580;28;20041;-53
2023/09/09 07:03:37;;;;;;;13.35;11.75;;;20.10;99.90;;;;;;4992129;28;20528;-52
2023/09/09 07:06:23;;;;;;;15.85;13.02;;;20.10;99.90;;;;;;4981156;28;20680;-52
2023/09/09 07:09:10;;;;;;;22.15;17.92;;;20.30;99.90;;;;;;4973425;28;20023;-53
2023/09/09 07:11:58;;;;;;;15.27;13.75;;;20.30;99.90;;;;;;4965594;28;20030;-54
2023/09/09 07:14:44;;;;;;;14.93;13.13;;;20.40;99.90;;;;;;4992367;28;20026;-51
2023/09/09 07:17:30;;;;;;;14.65;13.07;;;20.50;99.90;;;;;;4991262;28;20517;-51
2023/09/09 07:20:16;;;;;;;14.20;12.70;;;20.60;99.80;;;;;;4987440;28;20037;-55
2023/09/09 07:23:02;;;;;;;15.07;12.35;;;20.60;99.70;;;;;;4980056;28;20030;-51
2023/09/09 07:25:48;;;;;;;18.00;13.25;;;20.80;99.60;;;;;;4989241;28;20015;-50
2023/09/09 07:28:34;;;;;;;14.10;12.15;;;20.90;99.40;;;;;;4982279;28;20034;-52
2023/09/09 07:31:20;;;;;;;13.75;12.35;;;21.00;98.90;;;;;;4991782;28;20503;-53
2023/09/09 07:34:08;;;;;;;14.27;11.43;;;21.00;98.90;;;;;;4977799;28;20117;-51
2023/09/09 07:36:53;;;;;;;13.65;12.02;;;21.00;99.10;;;;;;4987973;28;20057;-50
2023/09/09 07:39:49;;;;;;;13.25;11.95;;;21.20;99.00;;;;;;4972033;28;20454;-51
2023/09/09 07:42:35;;;;;;;11.88;10.48;;;21.20;98.80;;;;;;4970751;28;20031;-51
2023/09/09 07:45:21;;;;;;;13.57;11.45;;;21.40;98.90;;;;;;4967395;28;20465;-54
2023/09/09 07:48:07;;;;;;;14.57;13.07;;;21.50;98.80;;;;;;4969412;28;20053;-54
2023/09/09 07:50:54;;;;;;;13.32;11.90;;;21.60;98.80;;;;;;4960740;28;20114;-52
2023/09/09 07:53:40;;;;;;;13.15;11.80;;;21.60;98.40;;;;;;4969984;28;20018;-53
2023/09/09 07:56:26;;;;;;;12.63;11.27;;;21.70;97.80;;;;;;4959066;28;20035;-49
2023/09/09 07:59:12;;;;;;;13.52;11.15;;;21.80;97.60;;;;;;4963106;28;20084;-52
2023/09/09 08:01:58;;;;;;;15.43;12.13;;;21.90;97.40;;;;;;4969736;28;20065;-52
2023/09/09 08:04:44;;;;;;;17.23;12.60;;;21.90;96.50;;;;;;4985841;28;20039;-51
2023/09/09 08:07:30;;;;;;;13.50;11.60;;;22.00;96.10;;;;;;4970695;28;20019;-57
2023/09/09 08:10:17;;;;;;;12.73;11.55;;;22.10;95.70;;;;;;4988745;28;20060;-52
2023/09/09 08:13:03;;;;;;;14.55;13.05;;;22.20;95.70;;;;;;4964819;28;20074;-54
2023/09/09 08:15:48;;;;;;;13.02;11.63;;;22.30;95.50;;;;;;4961630;28;20030;-52
2023/09/09 08:18:35;;;;;;;13.50;12.15;;;22.40;95.30;;;;;;4961681;28;20030;-57
2023/09/09 08:21:21;;;;;;;13.20;11.88;;;22.50;95.20;;;;;;4963746;28;20033;-54
2023/09/09 08:24:07;;;;;;;15.13;12.00;;;22.70;95.40;;;;;;4973742;28;20405;-57
2023/09/09 08:26:52;;;;;;;13.48;11.65;;;22.80;94.90;;;;;;4962017;28;20090;-54
2023/09/09 08:29:38;;;;;;;16.48;12.07;;;22.80;94.90;;;;;;4959246;28;20027;-54
2023/09/09 08:32:24;;;;;;;12.63;11.30;;;23.00;94.50;;;;;;4959470;28;20038;-56
2023/09/09 08:35:10;;;;;;;13.10;11.07;;;23.00;94.50;;;;;;4962185;28;20039;-54
2023/09/09 08:37:57;;;;;;;13.80;11.13;;;23.10;94.10;;;;;;4965359;28;20027;-58
2023/09/09 08:41:06;;;;;;;12.13;10.75;;;23.10;93.90;;;;;;4968888;28;20039;-55
2023/09/09 08:44:11;;;;;;;12.43;11.13;;;23.20;93.90;;;;;;4954680;28;20028;-60
2023/09/09 08:46:57;;;;;;;12.48;10.40;;;23.30;93.40;;;;;;4971756;28;20558;-52
2023/09/09 08:49:47;;;;;;;15.23;10.98;;;23.40;93.30;;;;;;4956850;28;20531;-53
2023/09/09 08:52:34;;;;;;;11.63;10.25;;;23.50;93.30;;;;;;4958685;28;20042;-52
2023/09/09 08:55:20;;;;;;;13.55;12.15;;;23.50;93.50;;;;;;4955848;28;20043;-54
2023/09/09 08:58:06;;;;;;;12.57;11.25;;;23.70;93.40;;;;;;4957651;28;20045;-55
2023/09/09 09:00:54;;;;;;;36.15;30.65;;;23.70;93.30;;;;;;4956590;28;20031;-56
2023/09/09 09:03:40;;;;;;;17.42;15.40;;;23.80;93.30;;;;;;4958081;28;20031;-54
2023/09/09 09:06:27;;;;;;;12.68;11.38;;;23.90;93.10;;;;;;4966812;28;20035;-54
2023/09/09 09:09:16;;;;;;;12.52;10.25;;;24.00;92.90;;;;;;4961392;28;20042;-53
2023/09/09 09:12:05;;;;;;;11.68;10.35;;;24.10;92.80;;;;;;4958285;28;20035;-50
2023/09/09 09:14:51;;;;;;;11.48;10.38;;;24.20;92.60;;;;;;4971052;28;20022;-54
2023/09/09 09:17:40;;;;;;;13.50;10.55;;;24.20;92.10;;;;;;4976760;28;20031;-53
2023/09/09 09:20:30;;;;;;;11.85;10.63;;;24.30;92.20;;;;;;4960165;28;20481;-55
2023/09/09 09:23:16;;;;;;;13.70;10.38;;;24.40;91.80;;;;;;4961360;28;20509;-53
2023/09/09 09:26:02;;;;;;;10.77;9.68;;;24.60;91.70;;;;;;4963465;28;20100;-54
2023/09/09 09:28:48;;;;;;;11.65;10.45;;;24.60;91.70;;;;;;4965193;28;20430;-55
2023/09/09 09:31:34;;;;;;;11.07;9.70;;;24.60;91.60;;;;;;4969653;28;20035;-54
2023/09/09 09:34:21;;;;;;;11.13;9.88;;;24.80;91.40;;;;;;4983661;28;20030;-55
2023/09/09 09:37:11;;;;;;;12.32;9.98;;;25.00;91.30;;;;;;4964191;28;20086;-54
2023/09/09 09:39:57;;;;;;;11.23;9.80;;;25.20;91.40;;;;;;4962596;28;20093;-51
2023/09/09 09:42:43;;;;;;;10.48;9.38;;;25.30;91.40;;;;;;4962049;28;20050;-53
2023/09/09 09:45:30;;;;;;;12.80;9.30;;;25.40;91.20;;;;;;4979486;28;20038;-56
2023/09/09 09:48:26;;;;;;;11.30;9.73;;;25.30;91.40;;;;;;4988673;28;20030;-66
2023/09/09 09:51:13;;;;;;;15.27;10.55;;;25.40;91.40;;;;;;4986266;28;20089;-55
2023/09/09 09:53:59;;;;;;;13.93;10.10;;;25.60;91.10;;;;;;4959479;28;20094;-55
2023/09/09 09:56:45;;;;;;;10.43;9.32;;;25.60;91.00;;;;;;4961952;28;20035;-56
2023/09/09 09:59:33;;;;;;;14.77;9.90;;;25.70;91.00;;;;;;4989156;28;20522;-53
2023/09/09 10:02:20;;;;;;;14.60;9.68;;;25.80;90.70;;;;;;4979576;28;20034;-55
2023/09/09 10:05:12;;;;;;;10.20;9.23;;;26.00;90.60;;;;;;4965936;28;20412;-55
2023/09/09 10:08:25;;;;;;;10.43;9.43;;;26.00;90.50;;;;;;4963039;28;20086;-55
2023/09/09 10:11:15;;;;;;;12.02;9.63;;;26.10;90.20;;;;;;4962241;28;20091;-56
2023/09/09 10:14:14;;;;;;;10.38;9.02;;;26.10;90.20;;;;;;4973757;28;20058;-57
2023/09/09 10:17:05;;;;;;;9.85;8.85;;;26.20;89.80;;;;;;4968331;28;20028;-54
2023/09/09 10:19:54;;;;;;;10.73;9.63;;;26.20;90.50;;;;;;4970585;28;20053;-51
2023/09/09 10:22:41;;;;;;;13.35;10.07;;;26.30;90.50;;;;;;4973203;28;20519;-51
2023/09/09 10:25:28;;;;;;;10.73;9.68;;;26.30;90.30;;;;;;4980338;28;20040;-55
2023/09/09 10:28:16;;;;;;;14.85;9.77;;;26.30;90.30;;;;;;4970714;28;20058;-57
2023/09/09 10:31:03;;;;;;;11.23;9.10;;;26.10;90.80;;;;;;4972475;28;20038;-53
2023/09/09 10:33:50;;;;;;;11.10;9.55;;;26.20;90.90;;;;;;4984106;28;20026;-58
2023/09/09 10:36:37;;;;;;;11.43;9.65;;;26.10;91.10;;;;;;4983675;28;20038;-55
2023/09/09 10:39:24;;;;;;;10.98;9.82;;;26.30;90.80;;;;;;4993730;28;20018;-56
2023/09/09 10:42:11;;;;;;;11.68;9.57;;;26.20;90.90;;;;;;4993029;28;20110;-56
2023/09/09 10:45:23;;;;;;;10.80;9.50;;;26.30;91.00;;;;;;4981452;28;20097;-54
2023/09/09 10:48:12;;;;;;;13.70;9.95;;;26.50;90.70;;;;;;4992838;28;20030;-55
2023/09/09 10:51:05;;;;;;;11.95;9.95;;;26.50;90.60;;;;;;4981236;28;20227;-53
2023/09/09 10:54:07;;;;;;;12.32;10.07;;;26.60;90.60;;;;;;4991248;28;20101;-56
2023/09/09 10:56:59;;;;;;;11.25;10.02;;;26.60;90.70;;;;;;4989430;28;20089;-56
2023/09/09 10:59:45;;;;;;;18.95;10.13;;;26.50;90.90;;;;;;4986761;28;20532;-54
2023/09/09 11:02:46;;;;;;;12.70;10.45;;;26.60;91.00;;;;;;4982364;28;20035;-52
2023/09/09 11:06:07;;;;;;;13.00;9.90;;;26.70;91.00;;;;;;4982610;28;20018;-57
2023/09/09 11:08:55;;;;;;;10.50;9.35;;;26.80;90.90;;;;;;4973362;28;20019;-51
2023/09/09 11:11:43;;;;;;;15.68;9.52;;;27.00;90.30;;;;;;4971958;28;20054;-56
2023/09/09 11:14:30;;;;;;;13.90;9.50;;;27.00;89.50;;;;;;4984256;28;20524;-57
2023/09/09 11:17:16;;;;;;;12.10;9.27;;;26.90;89.30;;;;;;4976651;28;20027;-51
2023/09/09 11:20:03;;;;;;;12.43;9.75;;;26.90;89.30;;;;;;4979613;28;20033;-56
2023/09/09 11:22:49;;;;;;;12.00;9.00;;;27.10;88.60;;;;;;4988719;28;20029;-55
2023/09/09 11:25:36;;;;;;;9.93;8.82;;;27.10;88.80;;;;;;4979122;28;20754;-55
2023/09/09 11:28:23;;;;;;;10.13;9.02;;;27.10;87.80;;;;;;4971453;28;20030;-54
2023/09/09 11:31:13;;;;;;;10.55;9.30;;;27.10;87.80;;;;;;4979547;28;20511;-55
2023/09/09 11:33:59;;;;;;;13.27;9.73;;;27.20;87.10;;;;;;4965221;28;20523;-56
2023/09/09 11:36:46;;;;;;;10.50;9.40;;;27.30;86.60;;;;;;4984541;28;20524;-56
2023/09/09 11:39:39;;;;;;;11.88;9.05;;;27.30;86.90;;;;;;4974970;28;20033;-57
2023/09/09 11:42:25;;;;;;;11.20;8.70;;;27.30;86.00;;;;;;4979075;28;20030;-56
2023/09/09 11:45:18;;;;;;;11.98;8.93;;;27.30;86.20;;;;;;4980277;28;20117;-56
2023/09/09 11:48:04;;;;;;;10.43;9.18;;;27.50;85.10;;;;;;4992518;28;20471;-55
2023/09/09 11:50:50;;;;;;;8.73;7.60;;;27.60;85.00;;;;;;4980759;28;20030;-54
2023/09/09 11:53:36;;;;;;;11.40;8.30;;;27.60;83.40;;;;;;4980168;28;20041;-54
2023/09/09 11:56:22;;;;;;;9.85;7.80;;;27.70;82.60;;;;;;4987879;28;20057;-51
2023/09/09 11:59:09;;;;;;;8.40;7.20;;;27.80;81.10;;;;;;4991800;28;20023;-54
2023/09/09 12:01:55;;;;;;;9.63;8.18;;;27.80;80.90;;;;;;4987016;28;20035;-52
2023/09/09 12:04:52;;;;;;;9.60;8.65;;;28.00;81.20;;;;;;4978274;28;20463;-53
2023/09/09 12:07:38;;;;;;;11.50;7.85;;;28.00;80.70;;;;;;4987324;28;20026;-55
2023/09/09 12:10:31;;;;;;;8.75;7.65;;;28.10;80.30;;;;;;4980087;28;20022;-56
2023/09/09 12:13:17;;;;;;;13.35;8.40;;;28.10;79.40;;;;;;4982040;28;20022;-55
2023/09/09 12:16:06;;;;;;;9.88;8.50;;;28.10;80.30;;;;;;4991440;28;20101;-55
2023/09/09 12:18:53;;;;;;;9.73;8.13;;;28.20;80.10;;;;;;4991998;28;20019;-54
2023/09/09 12:21:46;;;;;;;10.88;8.32;;;28.20;79.00;;;;;;4972272;28;20019;-53
2023/09/09 12:24:41;;;;;;;11.10;8.10;;;28.40;79.10;;;;;;4990772;28;20050;-51
2023/09/09 12:27:44;;;;;;;9.38;8.45;;;28.30;78.50;;;;;;4970945;28;20034;-51
2023/09/09 12:30:39;;;;;;;10.80;8.15;;;28.30;78.50;;;;;;4985635;28;20045;-55
2023/09/09 12:33:25;;;;;;;11.20;8.02;;;28.30;77.70;;;;;;4982800;28;20022;-55
2023/09/09 12:36:16;;;;;;;9.60;8.32;;;28.40;77.70;;;;;;4970483;28;20026;-53
2023/09/09 12:39:02;;;;;;;8.38;7.57;;;28.50;78.30;;;;;;4980394;28;20500;-53
2023/09/09 12:42:06;;;;;;;9.10;8.13;;;28.60;77.80;;;;;;4982055;28;20468;-53
2023/09/09 12:44:52;;;;;;;13.03;7.90;;;28.80;76.90;;;;;;4982080;28;20018;-56
2023/09/09 12:47:38;;;;;;;10.32;7.90;;;28.80;76.50;;;;;;4991334;28;20018;-54
2023/09/09 12:50:24;;;;;;;10.30;7.93;;;29.00;76.10;;;;;;4989807;28;20465;-53
2023/09/09 12:53:10;;;;;;;9.75;8.13;;;29.10;75.70;;;;;;4990788;28;20411;-54
2023/09/09 12:55:56;;;;;;;11.57;8.05;;;29.20;76.70;;;;;;4988988;28;20077;-53
2023/09/09 12:58:42;;;;;;;8.90;8.00;;;29.30;76.90;;;;;;4989488;28;20027;-54
2023/09/09 13:01:28;;;;;;;10.77;7.78;;;29.50;76.30;;;;;;4982525;28;20481;-49
2023/09/09 13:04:14;;;;;;;8.73;7.85;;;29.70;75.50;;;;;;4979655;28;20110;-53
2023/09/09 13:07:00;;;;;;;9.90;7.93;;;29.60;76.20;;;;;;4984679;28;20102;-57
2023/09/09 13:09:46;;;;;;;9.52;8.18;;;29.70;76.00;;;;;;4981049;28;20039;-54
2023/09/09 13:12:32;;;;;;;9.48;7.88;;;29.70;74.30;;;;;;4976451;28;20023;-55
2023/09/09 13:15:18;;;;;;;10.55;8.23;;;29.80;75.00;;;;;;4960683;28;20418;-57
2023/09/09 13:18:04;;;;;;;9.90;8.20;;;30.00;74.50;;;;;;4964898;28;20373;-53
2023/09/09 13:20:50;;;;;;;11.15;8.02;;;30.00;75.10;;;;;;4969838;28;20097;-52
2023/09/09 13:23:36;;;;;;;8.93;7.45;;;30.00;75.00;;;;;;4964585;28;20509;-55
2023/09/09 13:26:22;;;;;;;9.07;8.02;;;30.00;72.40;;;;;;4959806;28;20037;-57
2023/09/09 13:29:08;;;;;;;12.32;7.47;;;29.90;73.10;;;;;;4962177;28;20126;-55
2023/09/09 13:31:54;;;;;;;8.45;7.65;;;30.00;72.90;;;;;;4968561;28;20039;-52
2023/09/09 13:34:40;;;;;;;8.70;7.72;;;30.20;73.00;;;;;;4956533;28;20027;-56
2023/09/09 13:37:27;;;;;;;10.48;8.70;;;30.40;73.40;;;;;;4959081;28;20030;-53
2023/09/09 13:40:14;;;;;;;10.68;8.15;;;30.70;73.10;;;;;;4962966;28;20071;-52
2023/09/09 13:43:00;;;;;;;9.38;7.93;;;30.90;72.40;;;;;;4957090;28;20030;-54
2023/09/09 13:45:46;;;;;;;9.52;7.30;;;31.00;71.20;;;;;;4960594;28;20038;-55
2023/09/09 13:48:32;;;;;;;12.23;7.72;;;31.00;71.20;;;;;;4963185;28;20023;-52
2023/09/09 13:51:18;;;;;;;9.45;7.50;;;31.00;73.10;;;;;;4955507;28;20026;-55
2023/09/09 13:54:04;;;;;;;10.45;8.65;;;31.40;76.60;;;;;;4958479;28;20035;-52
2023/09/09 13:56:53;;;;;;;9.35;8.20;;;31.60;74.60;;;;;;4963743;28;20489;-55
2023/09/09 13:59:42;;;;;;;10.40;9.35;;;31.90;74.40;;;;;;4964278;28;20058;-53
2023/09/09 14:02:28;;;;;;;9.73;8.68;;;32.10;73.00;;;;;;4956006;28;20022;-52
2023/09/09 14:05:14;;;;;;;9.43;8.32;;;32.20;72.80;;;;;;4964633;28;20041;-53
2023/09/09 14:08:00;;;;;;;11.77;8.75;;;31.90;70.90;;;;;;4961247;28;20086;-56
2023/09/09 14:10:46;;;;;;;13.13;8.93;;;31.90;69.90;;;;;;4965441;28;20049;-50
2023/09/09 14:13:32;;;;;;;8.95;8.05;;;32.00;72.50;;;;;;4968670;28;20038;-55